createdAt,value
2023-05-21T00:00:20.734Z,101.57
2023-05-21T00:02:48.795Z,91.03
2023-05-21T00:05:18.871Z,106.70
2023-05-21T00:07:47.183Z,87.82
2023-05-21T00:10:15.529Z,165.85
2023-05-21T00:12:43.571Z,171.80
2023-05-21T00:15:12.171Z,339.05
2023-05-21T00:17:40.357Z,333.33
2023-05-21T00:20:10.043Z,329.87
2023-05-21T00:22:40.334Z,326.42
2023-05-21T00:25:08.949Z,304.88
2023-05-21T00:27:37.009Z,313.42
2023-05-21T00:30:05.606Z,278.90
2023-05-21T00:32:33.622Z,326.73
2023-05-21T00:35:01.615Z,159.63
2023-05-21T00:37:34.460Z,328.15
2023-05-21T00:40:07.080Z,327.88
2023-05-21T00:42:39.280Z,305.13
2023-05-21T00:45:08.760Z,310.57
2023-05-21T00:47:37.248Z,276.50
2023-05-21T00:50:07.029Z,274.97
2023-05-21T00:52:41.570Z,293.30
2023-05-21T00:55:11.772Z,297.17
2023-05-21T00:57:41.331Z,289.17
2023-05-21T01:00:11.054Z,304.52
2023-05-21T01:02:39.207Z,118.00
2023-05-21T01:05:08.030Z,103.95
2023-05-21T01:07:37.035Z,108.63
2023-05-21T01:10:06.384Z,109.63
2023-05-21T01:12:38.993Z,239.07
2023-05-21T01:15:08.608Z,296.15
2023-05-21T01:17:36.714Z,307.38
2023-05-21T01:20:10.437Z,303.20
2023-05-21T01:22:43.528Z,291.20
2023-05-21T01:25:13.229Z,279.08
2023-05-21T01:27:41.734Z,266.58
2023-05-21T01:30:10.717Z,278.17
2023-05-21T01:32:46.225Z,277.35
2023-05-21T01:35:18.593Z,283.23
2023-05-21T01:37:52.552Z,267.00
2023-05-21T01:40:26.904Z,284.42
2023-05-21T01:42:55.123Z,286.77
2023-05-21T01:45:24.965Z,270.23
2023-05-21T01:47:56.669Z,271.40
2023-05-21T01:50:25.786Z,241.80
2023-05-21T01:52:56.840Z,269.65
2023-05-21T01:55:26.190Z,292.37
2023-05-21T01:57:54.898Z,281.35
2023-05-21T02:00:23.459Z,273.48
2023-05-21T02:02:51.983Z,289.58
2023-05-21T02:05:20.071Z,296.60
2023-05-21T02:07:48.437Z,301.00
2023-05-21T02:10:16.503Z,294.53
2023-05-21T02:12:46.040Z,249.93
2023-05-21T02:15:17.821Z,285.85
2023-05-21T02:17:46.363Z,292.97
2023-05-21T02:20:14.781Z,291.33
2023-05-21T02:22:44.569Z,293.25
2023-05-21T02:25:13.866Z,284.33
2023-05-21T02:27:42.942Z,290.87
2023-05-21T02:30:13.634Z,292.60
2023-05-21T02:32:42.856Z,286.73
2023-05-21T02:35:12.712Z,284.87
2023-05-21T02:37:41.398Z,289.40
2023-05-21T02:40:10.791Z,294.43
2023-05-21T02:42:41.524Z,287.73
2023-05-21T02:45:11.282Z,84.97
2023-05-21T02:47:40.893Z,126.57
2023-05-21T02:50:10.316Z,173.70
2023-05-21T02:52:38.355Z,282.42
2023-05-21T02:55:07.295Z,288.30
2023-05-21T02:57:35.301Z,268.27
2023-05-21T03:00:03.771Z,270.13
2023-05-21T03:02:32.289Z,261.80
2023-05-21T03:05:01.736Z,273.27
2023-05-21T03:07:29.747Z,279.37
2023-05-21T03:09:57.729Z,257.10
2023-05-21T03:12:25.754Z,244.07
2023-05-21T03:14:54.433Z,231.95
2023-05-21T03:17:22.442Z,267.20
2023-05-21T03:19:50.427Z,100.13
2023-05-21T03:22:20.291Z,67.53
2023-05-21T03:24:48.625Z,68.88
2023-05-21T03:27:16.792Z,90.80
2023-05-21T03:29:45.961Z,90.65
2023-05-21T03:32:14.966Z,76.45
2023-05-21T03:34:43.145Z,107.82
2023-05-21T03:37:11.137Z,84.72
2023-05-21T03:39:40.468Z,109.22
2023-05-21T03:42:08.498Z,99.10
2023-05-21T03:44:36.755Z,89.90
2023-05-21T03:47:04.782Z,101.43
2023-05-21T03:49:32.798Z,111.88
2023-05-21T03:52:00.816Z,118.47
2023-05-21T03:54:28.811Z,116.00
2023-05-21T03:56:58.166Z,113.00
2023-05-21T03:59:26.370Z,103.28
2023-05-21T04:01:54.365Z,82.38
2023-05-21T04:04:22.410Z,83.85
2023-05-21T04:06:51.507Z,60.10
2023-05-21T04:09:19.506Z,49.05
2023-05-21T04:11:47.912Z,60.90
2023-05-21T04:14:17.357Z,42.78
2023-05-21T04:16:45.355Z,56.22
2023-05-21T04:19:13.412Z,56.97
2023-05-21T04:21:41.972Z,294.15
2023-05-21T04:24:10.332Z,91.90
2023-05-21T04:26:38.297Z,285.90
2023-05-21T04:29:06.365Z,284.48
2023-05-21T04:31:35.817Z,266.50
2023-05-21T04:34:04.175Z,269.30
2023-05-21T04:36:33.796Z,262.67
2023-05-21T04:39:01.806Z,140.32
2023-05-21T04:41:29.807Z,275.73
2023-05-21T04:43:58.718Z,299.83
2023-05-21T04:46:26.806Z,324.10
2023-05-21T04:48:56.361Z,140.50
2023-05-21T04:51:24.745Z,209.82
2023-05-21T04:53:53.935Z,216.20
2023-05-21T04:56:22.856Z,168.57
2023-05-21T04:58:50.843Z,329.98
2023-05-21T05:01:19.063Z,351.13
2023-05-21T05:03:47.313Z,283.15
2023-05-21T05:06:16.807Z,366.65
2023-05-21T05:08:46.119Z,362.55
2023-05-21T05:11:14.274Z,349.05
2023-05-21T05:13:42.742Z,362.63
2023-05-21T05:16:11.379Z,368.17
2023-05-21T05:18:39.404Z,376.83
2023-05-21T05:21:07.449Z,353.63
2023-05-21T05:23:36.844Z,372.73
2023-05-21T05:26:04.819Z,194.75
2023-05-21T05:28:32.781Z,234.23
2023-05-21T05:31:00.814Z,232.18
2023-05-21T05:33:28.871Z,265.58
2023-05-21T05:35:56.899Z,400.05
2023-05-21T05:38:26.066Z,398.00
2023-05-21T05:40:55.568Z,399.58
2023-05-21T05:43:23.568Z,407.08
2023-05-21T05:45:51.587Z,380.48
2023-05-21T05:48:19.638Z,368.02
2023-05-21T05:50:47.982Z,414.45
2023-05-21T05:53:16.077Z,418.48
2023-05-21T05:55:44.152Z,433.60
2023-05-21T05:58:13.549Z,442.75
2023-05-21T06:00:41.566Z,444.10
2023-05-21T06:03:09.646Z,432.45
2023-05-21T06:05:38.037Z,461.90
2023-05-21T06:08:06.842Z,465.02
2023-05-21T06:10:34.834Z,482.92
2023-05-21T06:13:02.834Z,484.13
2023-05-21T06:15:32.218Z,496.40
2023-05-21T06:18:00.300Z,508.92
2023-05-21T06:20:29.970Z,514.85
2023-05-21T06:22:57.991Z,517.67
2023-05-21T06:25:26.945Z,535.50
2023-05-21T06:27:54.957Z,524.72
2023-05-21T06:30:22.945Z,530.78
2023-05-21T06:32:52.374Z,549.40
2023-05-21T06:35:20.495Z,543.70
2023-05-21T06:37:48.717Z,549.58
2023-05-21T06:40:16.964Z,552.83
2023-05-21T06:42:44.946Z,585.55
2023-05-21T06:45:13.535Z,571.10
2023-05-21T06:47:41.985Z,594.95
2023-05-21T06:50:11.871Z,574.42
2023-05-21T06:52:39.880Z,585.35
2023-05-21T06:55:09.770Z,588.88
2023-05-21T06:57:39.004Z,584.38
2023-05-21T07:00:09.267Z,582.97
2023-05-21T07:02:37.480Z,582.63
2023-05-21T07:05:05.857Z,589.75
2023-05-21T07:07:35.792Z,592.92
2023-05-21T07:10:04.069Z,586.65
2023-05-21T07:12:32.121Z,601.83
2023-05-21T07:15:00.178Z,618.03
2023-05-21T07:17:28.233Z,631.83
2023-05-21T07:19:56.538Z,643.95
2023-05-21T07:22:26.634Z,644.30
2023-05-21T07:24:57.421Z,646.15
2023-05-21T07:27:26.261Z,652.10
2023-05-21T07:29:54.507Z,646.70
2023-05-21T07:32:22.587Z,625.38
2023-05-21T07:34:52.143Z,633.95
2023-05-21T07:37:21.668Z,637.08
2023-05-21T07:39:49.668Z,648.05
2023-05-21T07:42:19.034Z,652.67
2023-05-21T07:44:47.052Z,647.35
2023-05-21T07:47:15.338Z,650.13
2023-05-21T07:49:43.414Z,656.00
2023-05-21T07:52:11.445Z,656.67
2023-05-21T07:54:39.400Z,676.38
2023-05-21T07:57:07.425Z,674.67
2023-05-21T07:59:36.797Z,670.03
2023-05-21T08:02:04.950Z,680.25
2023-05-21T08:04:33.011Z,671.38
2023-05-21T08:07:01.022Z,673.75
2023-05-21T08:09:29.424Z,665.28
2023-05-21T08:11:57.401Z,663.92
2023-05-21T08:14:25.423Z,668.47
2023-05-21T08:16:54.785Z,673.00
2023-05-21T08:19:22.833Z,674.85
2023-05-21T08:21:52.881Z,676.47
2023-05-21T08:24:21.245Z,668.97
2023-05-21T08:26:50.650Z,679.08
2023-05-21T08:29:18.725Z,685.00
2023-05-21T08:31:46.804Z,683.28
2023-05-21T08:34:16.420Z,687.70
2023-05-21T08:36:46.122Z,691.10
2023-05-21T08:39:14.090Z,683.47
2023-05-21T08:41:50.612Z,693.90
2023-05-21T08:44:22.598Z,699.88
2023-05-21T08:46:51.871Z,687.30
2023-05-21T08:49:27.788Z,701.42
2023-05-21T08:51:56.797Z,697.28
2023-05-21T08:54:25.355Z,699.33
2023-05-21T08:56:54.505Z,708.70
2023-05-21T08:59:23.152Z,725.78
2023-05-21T09:01:52.365Z,724.83
2023-05-21T09:04:22.457Z,707.08
2023-05-21T09:06:51.198Z,727.13
2023-05-21T09:09:26.113Z,737.15
2023-05-21T09:11:56.202Z,742.15
2023-05-21T09:14:25.194Z,730.97
2023-05-21T09:16:53.259Z,729.50
2023-05-21T09:19:23.586Z,749.47
2023-05-21T09:21:52.993Z,726.17
2023-05-21T09:24:23.861Z,731.72
2023-05-21T09:26:52.480Z,751.22
2023-05-21T09:29:20.673Z,742.17
2023-05-21T09:31:48.776Z,747.30
2023-05-21T09:34:17.042Z,752.55
2023-05-21T09:36:47.165Z,754.20
2023-05-21T09:39:28.895Z,754.92
2023-05-21T09:41:58.213Z,745.10
2023-05-21T09:44:26.302Z,747.03
2023-05-21T09:46:59.168Z,746.20
2023-05-21T09:49:28.187Z,761.50
2023-05-21T09:51:58.445Z,769.75
2023-05-21T09:54:27.082Z,768.65
2023-05-21T09:56:55.219Z,767.83
2023-05-21T09:59:23.269Z,773.58
2023-05-21T10:01:52.749Z,770.55
2023-05-21T10:04:22.403Z,774.05
2023-05-21T10:06:51.744Z,774.55
2023-05-21T10:09:22.423Z,767.17
2023-05-21T10:11:53.321Z,766.53
2023-05-21T10:14:22.611Z,762.88
2023-05-21T10:16:53.726Z,779.03
2023-05-21T10:19:23.828Z,778.35
2023-05-21T10:21:57.062Z,785.00
2023-05-21T10:24:26.851Z,785.17
2023-05-21T10:26:55.147Z,787.75
2023-05-21T10:29:24.478Z,786.20
2023-05-21T10:31:54.013Z,379.60
2023-05-21T10:34:24.445Z,595.17
2023-05-21T10:36:53.675Z,760.28
2023-05-21T10:39:24.021Z,775.80
2023-05-21T10:42:07.624Z,781.55
2023-05-21T10:44:51.015Z,773.00
2023-05-21T10:47:41.627Z,782.80
2023-05-21T10:50:36.315Z,786.63
2023-05-21T10:53:15.038Z,793.33
2023-05-21T10:55:58.403Z,790.13
2023-05-21T10:59:07.764Z,799.85
2023-05-21T11:01:38.239Z,783.80
2023-05-21T11:04:06.905Z,790.72
2023-05-21T11:06:35.269Z,793.17
2023-05-21T11:09:12.581Z,790.92
2023-05-21T11:11:46.188Z,806.28
2023-05-21T11:14:39.975Z,796.47
2023-05-21T11:17:17.052Z,571.63
2023-05-21T11:19:47.429Z,646.72
2023-05-21T11:22:24.333Z,579.22
2023-05-21T11:24:53.156Z,703.30
2023-05-21T11:27:33.835Z,779.60
2023-05-21T11:30:05.712Z,737.25
2023-05-21T11:32:33.820Z,812.92
2023-05-21T11:35:03.020Z,762.90
2023-05-21T11:37:34.380Z,746.25
2023-05-21T11:40:19.587Z,689.40
2023-05-21T11:42:52.033Z,691.33
2023-05-21T11:45:23.056Z,791.38
2023-05-21T11:47:52.012Z,671.42
2023-05-21T11:50:20.824Z,603.75
2023-05-21T11:52:49.745Z,739.17
2023-05-21T11:55:23.278Z,737.88
2023-05-21T11:57:54.655Z,627.83
2023-05-21T12:00:24.390Z,687.90
2023-05-21T12:02:55.552Z,677.28
2023-05-21T12:05:25.232Z,676.63
2023-05-21T12:07:54.701Z,777.83
2023-05-21T12:10:23.807Z,814.65
2023-05-21T12:12:55.684Z,756.45
2023-05-21T12:15:27.452Z,748.05
2023-05-21T12:17:57.087Z,766.15
2023-05-21T12:20:27.941Z,748.40
2023-05-21T12:22:57.874Z,751.03
2023-05-21T12:25:25.955Z,766.72
2023-05-21T12:27:58.759Z,781.92
2023-05-21T12:30:29.293Z,779.95
2023-05-21T12:33:02.200Z,757.63
2023-05-21T12:35:32.545Z,812.00
2023-05-21T12:38:02.382Z,761.47
2023-05-21T12:40:38.401Z,776.80
2023-05-21T12:43:07.513Z,549.70
2023-05-21T12:45:39.234Z,728.60
2023-05-21T12:48:07.707Z,800.60
2023-05-21T12:50:36.456Z,763.20
2023-05-21T12:53:04.764Z,733.97
2023-05-21T12:55:32.982Z,768.60
2023-05-21T12:58:08.003Z,770.17
2023-05-21T13:00:38.475Z,769.45
2023-05-21T13:03:07.401Z,760.33
2023-05-21T13:05:35.925Z,756.85
2023-05-21T13:08:03.988Z,653.65
2023-05-21T13:10:32.021Z,511.80
2023-05-21T13:13:00.241Z,709.47
2023-05-21T13:15:28.782Z,742.13
2023-05-21T13:18:00.942Z,742.92
2023-05-21T13:20:29.474Z,737.55
2023-05-21T13:22:57.501Z,737.75
2023-05-21T13:25:28.965Z,776.30
2023-05-21T13:27:57.935Z,794.78
2023-05-21T13:30:26.095Z,848.92
2023-05-21T13:32:54.238Z,823.15
2023-05-21T13:35:23.814Z,810.17
2023-05-21T13:37:51.848Z,816.97
2023-05-21T13:40:19.897Z,721.22
2023-05-21T13:42:49.427Z,798.47
2023-05-21T13:45:20.862Z,803.40
2023-05-21T13:47:49.437Z,803.78
2023-05-21T13:50:17.711Z,811.40
2023-05-21T13:52:47.281Z,829.60
2023-05-21T13:55:15.926Z,815.58
2023-05-21T13:57:44.266Z,842.13
2023-05-21T14:00:15.308Z,837.97
2023-05-21T14:02:44.373Z,838.05
2023-05-21T14:05:12.793Z,601.70
2023-05-21T14:07:42.169Z,845.05
2023-05-21T14:10:12.710Z,820.80
2023-05-21T14:12:41.021Z,835.55
2023-05-21T14:15:10.019Z,838.17
2023-05-21T14:17:40.252Z,835.65
2023-05-21T14:20:09.965Z,822.22
2023-05-21T14:22:38.948Z,754.05
2023-05-21T14:25:07.973Z,572.13
2023-05-21T14:27:38.694Z,766.78
2023-05-21T14:30:07.682Z,789.38
2023-05-21T14:32:35.764Z,801.17
2023-05-21T14:35:04.930Z,799.38
2023-05-21T14:37:33.071Z,807.47
2023-05-21T14:40:01.149Z,790.78
2023-05-21T14:42:29.168Z,808.80
2023-05-21T14:44:58.926Z,791.55
2023-05-21T14:47:28.142Z,817.55
2023-05-21T14:49:56.144Z,823.65
2023-05-21T14:52:24.148Z,810.00
2023-05-21T14:54:52.180Z,849.28
2023-05-21T14:57:20.826Z,853.75
2023-05-21T14:59:48.800Z,651.95
2023-05-21T15:02:18.277Z,646.65
2023-05-21T15:04:46.322Z,894.35
2023-05-21T15:07:14.391Z,910.38
2023-05-21T15:09:42.375Z,912.45
2023-05-21T15:12:10.358Z,913.45
2023-05-21T15:14:38.752Z,913.38
2023-05-21T15:17:06.849Z,925.92
2023-05-21T15:19:36.252Z,935.75
2023-05-21T15:22:04.314Z,935.65
2023-05-21T15:24:32.309Z,942.72
2023-05-21T15:27:00.348Z,934.67
2023-05-21T15:29:28.346Z,934.22
2023-05-21T15:31:56.537Z,937.63
2023-05-21T15:34:24.612Z,940.90
2023-05-21T15:36:54.125Z,938.00
2023-05-21T15:39:22.113Z,940.78
2023-05-21T15:41:50.126Z,936.38
2023-05-21T15:44:18.112Z,934.03
2023-05-21T15:46:46.218Z,938.40
2023-05-21T15:49:14.319Z,926.90
2023-05-21T15:51:42.337Z,925.25
2023-05-21T15:54:11.693Z,927.75
2023-05-21T15:56:39.705Z,925.15
2023-05-21T15:59:07.884Z,930.85
2023-05-21T16:01:35.998Z,931.75
2023-05-21T16:04:04.199Z,923.45
2023-05-21T16:06:32.305Z,932.67
2023-05-21T16:09:00.618Z,916.38
2023-05-21T16:11:30.207Z,929.42
2023-05-21T16:13:58.311Z,923.90
2023-05-21T16:16:26.362Z,923.70
2023-05-21T16:18:55.256Z,919.85
2023-05-21T16:21:23.233Z,914.13
2023-05-21T16:23:51.288Z,908.10
2023-05-21T16:26:19.367Z,907.70
2023-05-21T16:28:48.760Z,905.22
2023-05-21T16:31:16.867Z,901.47
2023-05-21T16:33:44.852Z,897.25
2023-05-21T16:36:13.119Z,906.63
2023-05-21T16:38:41.165Z,892.72
2023-05-21T16:41:09.185Z,902.58
2023-05-21T16:43:37.239Z,897.55
2023-05-21T16:46:06.751Z,902.47
2023-05-21T16:48:36.115Z,898.90
2023-05-21T16:51:06.097Z,907.53
2023-05-21T16:53:34.121Z,903.42
2023-05-21T16:56:02.143Z,894.83
2023-05-21T16:58:30.142Z,896.97
2023-05-21T17:00:58.234Z,889.30
2023-05-21T17:03:28.819Z,892.28
2023-05-21T17:05:56.885Z,885.72
2023-05-21T17:08:24.911Z,888.13
2023-05-21T17:10:52.949Z,893.25
2023-05-21T17:13:22.583Z,885.22
2023-05-21T17:15:51.873Z,885.85
2023-05-21T17:18:19.974Z,880.72
2023-05-21T17:20:49.358Z,876.95
2023-05-21T17:23:17.529Z,870.88
2023-05-21T17:25:45.625Z,873.65
2023-05-21T17:28:13.909Z,873.15
2023-05-21T17:30:41.901Z,878.28
2023-05-21T17:33:10.435Z,871.60
2023-05-21T17:35:39.054Z,874.88
2023-05-21T17:38:08.715Z,871.42
2023-05-21T17:40:36.750Z,869.53
2023-05-21T17:43:07.239Z,867.28
2023-05-21T17:45:35.540Z,855.22
2023-05-21T17:48:03.994Z,861.15
2023-05-21T17:50:32.106Z,857.50
2023-05-21T17:53:00.236Z,855.70
2023-05-21T17:55:29.599Z,861.90
2023-05-21T17:57:57.845Z,856.90
2023-05-21T18:00:25.950Z,851.97
2023-05-21T18:02:54.062Z,854.97
2023-05-21T18:05:22.751Z,854.70
2023-05-21T18:07:51.145Z,846.88
2023-05-21T18:10:19.245Z,845.22
2023-05-21T18:12:48.682Z,842.20
2023-05-21T18:15:17.030Z,831.85
2023-05-21T18:17:45.481Z,838.30
2023-05-21T18:20:14.866Z,835.65
2023-05-21T18:22:42.893Z,821.53
2023-05-21T18:25:11.598Z,814.53
2023-05-21T18:27:39.644Z,803.28
2023-05-21T18:30:10.105Z,804.80
2023-05-21T18:32:39.405Z,801.03
2023-05-21T18:35:10.700Z,795.67
2023-05-21T18:37:42.144Z,793.35
2023-05-21T18:40:11.388Z,791.25
2023-05-21T18:42:39.405Z,786.05
2023-05-21T18:45:10.224Z,777.05
2023-05-21T18:47:40.190Z,781.90
2023-05-21T18:50:09.916Z,773.28
2023-05-21T18:52:37.916Z,775.67
2023-05-21T18:55:06.880Z,771.13
2023-05-21T18:57:35.624Z,772.40
2023-05-21T19:00:04.631Z,765.88
2023-05-21T19:02:34.363Z,766.60
2023-05-21T19:05:02.870Z,760.03
2023-05-21T19:07:30.910Z,760.20
2023-05-21T19:10:00.063Z,753.42
2023-05-21T19:12:29.365Z,755.28
2023-05-21T19:14:57.397Z,749.28
2023-05-21T19:17:25.597Z,746.05
2023-05-21T19:19:56.215Z,739.15
2023-05-21T19:22:25.115Z,737.70
2023-05-21T19:24:53.757Z,733.03
2023-05-21T19:27:22.488Z,727.97
2023-05-21T19:29:50.588Z,733.13
2023-05-21T19:32:20.607Z,732.85
2023-05-21T19:34:48.932Z,726.50
2023-05-21T19:37:18.449Z,724.63
2023-05-21T19:39:49.680Z,715.75
2023-05-21T19:42:18.375Z,713.40
2023-05-21T19:44:47.089Z,714.22
2023-05-21T19:47:15.230Z,705.22
2023-05-21T19:49:43.318Z,698.08
2023-05-21T19:52:12.378Z,701.58
2023-05-21T19:54:41.831Z,700.30
2023-05-21T19:57:12.278Z,697.10
2023-05-21T19:59:40.824Z,683.70
2023-05-21T20:02:13.265Z,696.20
2023-05-21T20:04:41.631Z,683.30
2023-05-21T20:07:09.751Z,695.28
2023-05-21T20:09:37.791Z,687.95
2023-05-21T20:12:08.018Z,689.15
2023-05-21T20:14:36.067Z,681.67
2023-05-21T20:17:05.889Z,685.72
2023-05-21T20:19:34.134Z,683.97
2023-05-21T20:22:02.199Z,682.47
2023-05-21T20:24:30.214Z,666.40
2023-05-21T20:26:58.295Z,671.17
2023-05-21T20:29:28.706Z,664.58
2023-05-21T20:31:57.020Z,663.97
2023-05-21T20:34:27.278Z,649.15
2023-05-21T20:36:58.019Z,663.08
2023-05-21T20:39:28.615Z,646.42
2023-05-21T20:41:58.094Z,657.75
2023-05-21T20:44:28.863Z,656.33
2023-05-21T20:46:56.852Z,651.45
2023-05-21T20:49:25.857Z,650.85
2023-05-21T20:51:53.921Z,654.67
2023-05-21T20:54:22.538Z,650.80
2023-05-21T20:56:50.742Z,642.80
2023-05-21T20:59:18.813Z,650.03
2023-05-21T21:01:48.452Z,647.03
2023-05-21T21:04:17.773Z,643.88
2023-05-21T21:06:46.519Z,639.67
2023-05-21T21:09:14.814Z,640.45
2023-05-21T21:11:42.838Z,640.95
2023-05-21T21:14:10.978Z,639.05
2023-05-21T21:16:39.105Z,634.17
2023-05-21T21:19:08.646Z,631.47
2023-05-21T21:21:36.762Z,631.25
2023-05-21T21:24:05.246Z,633.38
2023-05-21T21:26:33.251Z,624.42
2023-05-21T21:29:01.812Z,625.92
2023-05-21T21:31:31.642Z,634.40
2023-05-21T21:33:59.731Z,629.15
2023-05-21T21:36:29.441Z,625.25
2023-05-21T21:38:57.466Z,618.95
2023-05-21T21:41:25.839Z,635.03
2023-05-21T21:43:53.850Z,630.05
2023-05-21T21:46:22.216Z,619.40
2023-05-21T21:48:50.279Z,623.33
2023-05-21T21:51:18.380Z,619.42
2023-05-21T21:53:47.714Z,620.60
2023-05-21T21:56:16.352Z,614.70
2023-05-21T21:58:44.427Z,619.75
2023-05-21T22:01:12.440Z,622.28
2023-05-21T22:03:41.015Z,619.05
2023-05-21T22:06:09.542Z,618.13
2023-05-21T22:08:37.549Z,613.85
2023-05-21T22:11:07.091Z,612.00
2023-05-21T22:13:35.412Z,610.95
2023-05-21T22:16:03.624Z,608.78
2023-05-21T22:18:41.020Z,601.30
2023-05-21T22:21:10.705Z,605.90
2023-05-21T22:23:39.445Z,599.53
2023-05-21T22:26:08.854Z,605.05
2023-05-21T22:28:37.610Z,596.83
2023-05-21T22:31:06.267Z,591.47
2023-05-21T22:33:34.350Z,597.75
2023-05-21T22:36:02.395Z,599.80
2023-05-21T22:38:30.496Z,595.33
2023-05-21T22:40:58.572Z,599.95
2023-05-21T22:43:28.278Z,583.40
2023-05-21T22:45:56.460Z,592.25
2023-05-21T22:48:24.740Z,597.70
2023-05-21T22:50:53.339Z,617.35
2023-05-21T22:53:21.634Z,596.15
2023-05-21T22:55:49.702Z,591.15
2023-05-21T22:58:18.007Z,590.67
2023-05-21T23:00:48.272Z,590.85
2023-05-21T23:03:16.851Z,593.35
2023-05-21T23:05:45.594Z,581.25
2023-05-21T23:08:14.072Z,593.03
2023-05-21T23:10:42.074Z,583.60
2023-05-21T23:13:10.190Z,586.20
2023-05-21T23:15:39.070Z,589.83
2023-05-21T23:18:08.938Z,586.83
2023-05-21T23:20:39.538Z,586.65
2023-05-21T23:23:07.947Z,583.55
2023-05-21T23:25:36.356Z,582.42
2023-05-21T23:28:04.717Z,581.17
2023-05-21T23:30:32.711Z,575.20
2023-05-21T23:33:01.043Z,581.33
2023-05-21T23:35:30.461Z,575.88
2023-05-21T23:37:58.453Z,577.75
2023-05-21T23:40:26.464Z,581.95
2023-05-21T23:42:54.562Z,575.63
2023-05-21T23:45:22.643Z,573.15
2023-05-21T23:47:50.710Z,577.78
2023-05-21T23:50:18.834Z,575.97
2023-05-21T23:52:48.243Z,574.45
2023-05-21T23:55:16.608Z,572.90
2023-05-21T23:57:44.673Z,573.42
